Time;durP1;ratioP1;P1;durP2;ratioP2;P2;SDS_P1;SDS_P2;PMS_P1;PMS_P2;Temp;Humidity;BMP_temperature;BMP_pressure;BME280_temperature;BME280_humidity;BME280_pressure;Samples;Min_cycle;Max_cycle;Signal;HPM_P1;HPM_P2
2022/10/25 00:00:44;;;;;;;1999.90;999.90;;;14.20;99.90;;;;;;5009775;28;20076;-86
2022/10/25 00:03:11;;;;;;;1999.90;999.90;;;14.20;99.90;;;;;;5026614;28;20386;-86
2022/10/25 00:05:38;;;;;;;1999.90;999.90;;;14.20;99.90;;;;;;5031634;28;20029;-86
2022/10/25 00:08:04;;;;;;;1999.90;999.90;;;14.10;99.90;;;;;;5013852;28;20030;-83
2022/10/25 00:10:30;;;;;;;1999.90;999.90;;;14.10;99.90;;;;;;5031901;28;20488;-86
2022/10/25 00:12:56;;;;;;;1999.90;999.90;;;14.10;99.90;;;;;;5031839;28;20033;-86
2022/10/25 00:15:22;;;;;;;1999.90;999.90;;;14.10;99.90;;;;;;5032077;28;20391;-86
2022/10/25 00:17:47;;;;;;;1999.90;999.90;;;14.10;99.90;;;;;;5016629;28;20551;-86
2022/10/25 00:20:13;;;;;;;1999.90;999.90;;;14.10;99.90;;;;;;5012395;28;20026;-86
2022/10/25 00:22:39;;;;;;;1999.90;999.90;;;14.10;99.90;;;;;;5011917;28;20025;-86
2022/10/25 00:25:06;;;;;;;1999.90;999.90;;;14.10;99.90;;;;;;5011953;28;20481;-86
2022/10/25 00:27:32;;;;;;;1999.90;999.90;;;14.10;99.90;;;;;;5012138;28;20404;-86
2022/10/25 00:29:58;;;;;;;1999.90;999.90;;;14.10;99.90;;;;;;5011238;28;20019;-86
2022/10/25 00:32:24;;;;;;;1999.90;999.90;;;14.10;99.90;;;;;;5012414;28;20393;-86
2022/10/25 00:34:49;;;;;;;1999.90;999.90;;;14.10;99.90;;;;;;5012061;28;20466;-86
2022/10/25 00:37:15;;;;;;;1999.90;999.90;;;14.10;99.90;;;;;;5011979;28;20058;-86
2022/10/25 00:39:41;;;;;;;1999.90;999.90;;;14.10;99.90;;;;;;5011907;28;20439;-86
2022/10/25 00:42:09;;;;;;;1999.90;999.90;;;14.10;99.90;;;;;;5011666;28;20492;-86
2022/10/25 00:44:37;;;;;;;1999.90;999.90;;;14.20;99.90;;;;;;5011970;28;20030;-86
2022/10/25 00:47:11;;;;;;;1999.90;999.90;;;14.30;99.90;;;;;;4994392;28;20032;-86
2022/10/25 00:49:37;;;;;;;1999.90;999.90;;;14.30;99.90;;;;;;5024848;28;20477;-86
2022/10/25 00:52:05;;;;;;;1999.90;999.90;;;14.30;99.90;;;;;;5031716;28;20069;-87
2022/10/25 00:54:40;;;;;;;1999.90;999.90;;;14.20;99.90;;;;;;5032176;28;20283;-86
2022/10/25 00:57:17;;;;;;;1999.90;999.90;;;14.20;99.90;;;;;;5013594;28;20036;-86
2022/10/25 00:59:45;;;;;;;1999.90;999.90;;;14.30;99.90;;;;;;5008721;28;20026;-86
2022/10/25 01:02:11;;;;;;;1999.90;999.90;;;14.30;99.90;;;;;;4992769;28;20105;-86
2022/10/25 01:04:37;;;;;;;1999.90;999.90;;;14.30;99.90;;;;;;4974900;28;20562;-86
2022/10/25 01:07:03;;;;;;;1999.90;999.90;;;14.30;99.90;;;;;;4992057;28;20034;-87
2022/10/25 01:09:34;;;;;;;1999.90;999.90;;;14.40;99.90;;;;;;5005825;28;20026;-86
2022/10/25 01:12:00;;;;;;;1999.90;999.90;;;14.30;99.90;;;;;;5000973;28;20038;-86
2022/10/25 01:14:27;;;;;;;1999.90;999.90;;;14.40;99.90;;;;;;5012327;28;20032;-86
2022/10/25 01:17:22;;;;;;;1999.90;999.90;;;14.40;99.90;;;;;;4995215;28;20064;-86
2022/10/25 01:20:02;;;;;;;1999.90;999.90;;;14.40;99.90;;;;;;5016363;28;20022;-86
2022/10/25 01:23:05;;;;;;;1999.90;999.90;;;14.40;99.90;;;;;;5015060;28;20026;-86
2022/10/25 01:26:02;;;;;;;1999.90;999.90;;;14.50;99.90;;;;;;5014955;28;20505;-86
2022/10/25 01:28:46;;;;;;;1999.90;999.90;;;14.50;99.90;;;;;;4961887;28;20050;-86
2022/10/25 01:31:37;;;;;;;1999.90;999.90;;;14.50;99.90;;;;;;4997607;28;20034;-87
2022/10/25 01:34:30;;;;;;;1999.90;999.90;;;14.50;99.90;;;;;;5001956;28;20112;-86
2022/10/25 01:37:10;;;;;;;1999.90;999.90;;;14.60;99.90;;;;;;5016457;28;20026;-86
2022/10/25 01:39:54;;;;;;;1999.90;999.90;;;14.60;99.90;;;;;;5027339;28;20030;-86
2022/10/25 01:42:28;;;;;;;1999.90;999.90;;;14.60;99.90;;;;;;5014483;28;20030;-87
2022/10/25 01:45:06;;;;;;;1999.90;999.90;;;14.70;99.90;;;;;;5014523;28;20026;-86
2022/10/25 01:47:35;;;;;;;1999.90;999.90;;;14.70;99.90;;;;;;5014216;28;20030;-86
2022/10/25 01:50:13;;;;;;;1999.90;999.90;;;14.70;99.90;;;;;;5014836;28;20026;-86
2022/10/25 01:52:38;;;;;;;1999.90;999.90;;;14.70;99.90;;;;;;5014504;28;20042;-86
2022/10/25 01:55:08;;;;;;;1999.90;999.90;;;14.80;99.90;;;;;;4996953;28;20037;-86
2022/10/25 01:58:17;;;;;;;1999.90;999.90;;;14.80;99.90;;;;;;5014366;28;20025;-86
2022/10/25 02:00:48;;;;;;;1999.90;999.90;;;14.70;99.90;;;;;;4967011;28;20058;-86
2022/10/25 02:03:28;;;;;;;1999.90;999.90;;;14.70;99.90;;;;;;4994916;28;20026;-85
2022/10/25 02:06:20;;;;;;;1999.90;999.90;;;14.70;99.90;;;;;;4993665;28;20076;-86
2022/10/25 02:09:01;;;;;;;1999.90;999.90;;;14.70;99.90;;;;;;4985079;28;20410;-86
2022/10/25 02:11:31;;;;;;;1999.90;999.90;;;14.60;99.90;;;;;;4994745;28;20478;-86
2022/10/25 02:14:06;;;;;;;1999.90;999.90;;;14.60;99.90;;;;;;5008318;28;20018;-86
2022/10/25 02:16:55;;;;;;;1999.90;999.90;;;14.60;99.90;;;;;;5003892;28;20022;-85
2022/10/25 02:19:36;;;;;;;1999.90;999.90;;;14.60;99.90;;;;;;5014380;28;20026;-86
2022/10/25 02:22:03;;;;;;;1999.90;999.90;;;14.60;99.90;;;;;;5033981;28;20072;-86
2022/10/25 02:24:30;;;;;;;1999.90;999.90;;;14.60;99.90;;;;;;5033812;28;20028;-86
2022/10/25 02:26:58;;;;;;;1999.90;999.90;;;14.50;99.90;;;;;;5015014;28;20025;-86
2022/10/25 02:29:26;;;;;;;1999.90;999.90;;;14.50;99.90;;;;;;5015151;28;20022;-86
2022/10/25 02:31:52;;;;;;;1999.90;999.90;;;14.50;99.90;;;;;;5000931;28;20032;-86
2022/10/25 02:34:18;;;;;;;1999.90;999.90;;;14.50;99.90;;;;;;5033963;28;20013;-86
2022/10/25 02:36:51;;;;;;;1999.90;999.90;;;14.40;99.90;;;;;;5033539;28;20369;-86
2022/10/25 02:39:19;;;;;;;1999.90;999.90;;;14.30;99.90;;;;;;5028645;28;20093;-86
2022/10/25 02:41:44;;;;;;;1999.90;999.90;;;14.30;99.90;;;;;;5013954;28;20034;-86
2022/10/25 02:44:10;;;;;;;1999.90;999.90;;;14.20;99.90;;;;;;5012895;28;20072;-86
2022/10/25 02:46:36;;;;;;;1999.90;999.90;;;14.20;99.90;;;;;;5013926;28;20021;-86
2022/10/25 02:49:01;;;;;;;1999.90;999.90;;;14.10;99.90;;;;;;4994962;28;20061;-86
2022/10/25 02:51:27;;;;;;;1999.90;999.90;;;14.00;99.90;;;;;;5013643;28;20030;-86
2022/10/25 02:53:53;;;;;;;1999.90;999.90;;;13.90;99.90;;;;;;5013611;28;20049;-86
2022/10/25 02:56:21;;;;;;;1999.90;999.90;;;13.80;99.90;;;;;;5013661;28;20033;-86
2022/10/25 02:58:48;;;;;;;1999.90;999.90;;;13.80;99.90;;;;;;5009533;28;20028;-86
2022/10/25 03:01:15;;;;;;;1999.90;999.90;;;13.70;99.90;;;;;;4993907;28;20132;-86
2022/10/25 03:03:41;;;;;;;1999.90;999.90;;;13.70;99.90;;;;;;4993587;28;20118;-86
2022/10/25 03:06:08;;;;;;;1999.90;999.90;;;13.70;99.90;;;;;;4993998;28;20473;-86
2022/10/25 03:08:33;;;;;;;1999.90;999.90;;;13.60;99.90;;;;;;4987605;28;20038;-86
2022/10/25 03:10:59;;;;;;;1999.90;999.90;;;13.60;99.90;;;;;;5013412;28;20508;-86
2022/10/25 03:13:25;;;;;;;1999.90;999.90;;;13.50;99.90;;;;;;4995433;28;20026;-85
2022/10/25 03:15:51;;;;;;;1999.90;999.90;;;13.50;99.90;;;;;;5013361;28;20496;-86
2022/10/25 03:18:17;;;;;;;1999.90;999.90;;;13.40;99.90;;;;;;5016555;28;20031;-86
2022/10/25 03:20:42;;;;;;;1999.90;999.90;;;13.40;99.90;;;;;;5032444;28;20037;-86
2022/10/25 03:23:08;;;;;;;1999.90;999.90;;;13.30;99.90;;;;;;5032949;28;20029;-86
2022/10/25 03:25:34;;;;;;;1999.90;999.90;;;13.30;99.90;;;;;;5032378;28;20544;-86
2022/10/25 03:28:00;;;;;;;1999.90;999.90;;;13.30;99.90;;;;;;5032877;28;20301;-86
2022/10/25 03:30:27;;;;;;;1999.90;999.90;;;13.20;99.90;;;;;;5032928;28;20025;-86
2022/10/25 03:32:53;;;;;;;1999.90;999.90;;;13.20;99.90;;;;;;4998699;28;20021;-86
2022/10/25 03:35:19;;;;;;;1999.90;999.90;;;13.10;99.90;;;;;;5014921;28;20033;-86
2022/10/25 03:37:46;;;;;;;1999.90;999.90;;;13.10;99.90;;;;;;5032518;28;20029;-86
2022/10/25 03:40:12;;;;;;;1999.90;999.90;;;13.10;99.90;;;;;;5020317;28;20037;-86
2022/10/25 03:42:37;;;;;;;1999.90;999.90;;;13.10;99.90;;;;;;5013010;28;20030;-86
2022/10/25 03:45:03;;;;;;;1999.90;999.90;;;13.00;99.90;;;;;;5011830;28;20033;-86
2022/10/25 03:47:29;;;;;;;1999.90;999.90;;;13.00;99.90;;;;;;5011925;28;20029;-86
2022/10/25 03:49:54;;;;;;;1999.90;999.90;;;12.90;99.90;;;;;;5012873;28;20474;-86
2022/10/25 03:52:20;;;;;;;1999.90;999.90;;;13.00;99.90;;;;;;5012511;28;20512;-86
2022/10/25 03:54:46;;;;;;;1999.90;999.90;;;13.00;99.90;;;;;;5012432;28;20029;-86
2022/10/25 03:57:11;;;;;;;1999.90;999.90;;;12.90;99.90;;;;;;5012312;28;20029;-86
2022/10/25 03:59:37;;;;;;;1999.90;999.90;;;12.90;99.90;;;;;;5001562;28;20117;-86
2022/10/25 04:02:02;;;;;;;1999.90;999.90;;;12.90;99.90;;;;;;4993034;28;20026;-86
2022/10/25 04:04:28;;;;;;;1999.90;999.90;;;12.90;99.90;;;;;;4992969;28;20058;-86
2022/10/25 04:06:54;;;;;;;1999.90;999.90;;;12.90;99.90;;;;;;4992526;28;20031;-86
2022/10/25 04:09:19;;;;;;;1999.90;999.90;;;12.90;99.90;;;;;;4975456;28;20445;-86
2022/10/25 04:11:45;;;;;;;1999.90;999.90;;;12.90;99.90;;;;;;5002089;28;20026;-86
2022/10/25 04:14:10;;;;;;;1999.90;999.90;;;12.90;99.90;;;;;;5012473;28;20064;-85
2022/10/25 04:16:36;;;;;;;1999.90;999.90;;;12.90;99.90;;;;;;4994992;28;20420;-85
2022/10/25 04:19:02;;;;;;;1999.90;999.90;;;13.00;99.90;;;;;;5012600;28;20068;-86
2022/10/25 04:21:27;;;;;;;1999.90;999.90;;;13.00;99.90;;;;;;5011696;28;20405;-85
2022/10/25 04:23:53;;;;;;;1999.90;999.90;;;13.00;99.90;;;;;;5012333;28;20041;-86
2022/10/25 04:26:19;;;;;;;1999.90;999.90;;;13.00;99.90;;;;;;5012780;28;20026;-86
2022/10/25 04:28:52;;;;;;;1999.90;999.90;;;13.00;99.90;;;;;;5027891;28;20036;-86
2022/10/25 04:31:19;;;;;;;1999.90;999.90;;;13.00;99.90;;;;;;5014886;28;20072;-86
2022/10/25 04:33:51;;;;;;;1999.90;999.90;;;13.00;99.90;;;;;;5011981;28;20026;-86
2022/10/25 04:36:17;;;;;;;1999.90;999.90;;;13.00;99.90;;;;;;5012175;28;20040;-86
2022/10/25 04:38:43;;;;;;;1999.90;999.90;;;13.00;99.90;;;;;;4994319;28;20508;-85
2022/10/25 04:41:09;;;;;;;1999.90;999.90;;;13.00;99.90;;;;;;5011206;28;20072;-85
2022/10/25 04:43:35;;;;;;;1999.90;999.90;;;12.90;99.90;;;;;;5012212;28;20034;-86
2022/10/25 04:46:01;;;;;;;1999.90;999.90;;;12.90;99.90;;;;;;5011388;28;20037;-86
2022/10/25 04:48:28;;;;;;;1999.90;999.90;;;12.90;99.90;;;;;;5011170;28;20026;-86
2022/10/25 04:50:53;;;;;;;1999.90;999.90;;;12.90;99.90;;;;;;5011625;28;20101;-85
2022/10/25 04:53:19;;;;;;;1999.90;999.90;;;12.80;99.90;;;;;;5015012;28;20129;-85
2022/10/25 04:55:58;;;;;;;1999.90;999.90;;;12.80;99.90;;;;;;5015727;28;20025;-86
2022/10/25 04:58:25;;;;;;;1999.90;999.90;;;12.80;99.90;;;;;;5014877;28;20034;-84
2022/10/25 05:00:51;;;;;;;1999.90;999.90;;;12.80;99.90;;;;;;4996124;28;20026;-85
2022/10/25 05:03:18;;;;;;;1999.90;999.90;;;12.90;99.90;;;;;;4996738;28;20023;-85
2022/10/25 05:05:44;;;;;;;1999.90;999.90;;;12.90;99.90;;;;;;5014422;28;20034;-86
2022/10/25 05:08:09;;;;;;;1999.90;999.90;;;12.80;99.90;;;;;;5015115;28;20205;-85
2022/10/25 05:10:35;;;;;;;1999.90;999.90;;;12.80;99.90;;;;;;5015586;28;20030;-87
2022/10/25 05:13:01;;;;;;;1999.90;999.90;;;12.80;99.90;;;;;;4997488;28;20041;-85
2022/10/25 05:15:27;;;;;;;1999.90;999.90;;;12.80;99.90;;;;;;4997978;28;20440;-85
2022/10/25 05:17:56;;;;;;;1999.90;999.90;;;12.80;99.90;;;;;;5015261;28;20041;-85
2022/10/25 05:20:22;;;;;;;1999.90;999.90;;;12.80;99.90;;;;;;5017477;28;20105;-84
2022/10/25 05:22:48;;;;;;;1999.90;999.90;;;12.80;99.90;;;;;;5034734;28;20467;-85
2022/10/25 05:25:13;;;;;;;1999.90;999.90;;;12.80;99.90;;;;;;5016722;28;20033;-85
2022/10/25 05:27:39;;;;;;;1999.90;999.90;;;12.70;99.90;;;;;;5023144;28;20088;-85
2022/10/25 05:30:05;;;;;;;1999.90;999.90;;;12.80;99.90;;;;;;5014122;28;20109;-85
2022/10/25 05:32:31;;;;;;;1999.90;999.90;;;12.80;99.90;;;;;;5020539;28;20025;-86
2022/10/25 05:34:56;;;;;;;1999.90;999.90;;;12.80;99.90;;;;;;5034866;28;20572;-85
2022/10/25 05:37:22;;;;;;;1999.90;999.90;;;12.80;99.90;;;;;;5015160;28;20026;-86
2022/10/25 05:39:48;;;;;;;1999.90;999.90;;;12.80;99.90;;;;;;5010971;28;20036;-86
2022/10/25 05:42:13;;;;;;;1999.90;999.90;;;12.80;99.90;;;;;;5015048;28;20088;-86
2022/10/25 05:44:39;;;;;;;1999.90;999.90;;;12.80;99.90;;;;;;4997149;28;20030;-85
2022/10/25 05:47:05;;;;;;;1999.90;999.90;;;12.90;99.90;;;;;;5012826;28;20037;-85
2022/10/25 05:49:30;;;;;;;1999.90;999.90;;;12.90;99.90;;;;;;5014532;28;20026;-85
2022/10/25 05:51:56;;;;;;;1999.90;999.90;;;13.00;99.90;;;;;;4996952;28;20050;-85
2022/10/25 05:54:22;;;;;;;1999.90;999.90;;;13.00;99.90;;;;;;5015146;28;20018;-85
2022/10/25 05:56:48;;;;;;;1999.90;999.90;;;13.10;99.90;;;;;;4996705;28;20113;-85
2022/10/25 05:59:14;;;;;;;1999.90;999.90;;;13.10;99.90;;;;;;5006824;28;20045;-85
2022/10/25 06:01:44;;;;;;;1999.90;999.90;;;13.10;99.90;;;;;;4977200;28;20030;-85
2022/10/25 06:04:10;;;;;;;1999.90;999.90;;;13.10;99.90;;;;;;4983948;28;20061;-85
2022/10/25 06:06:38;;;;;;;1999.90;999.90;;;13.20;99.90;;;;;;5009434;28;20061;-84
2022/10/25 06:09:04;;;;;;;1999.90;999.90;;;13.10;99.90;;;;;;5002309;28;20033;-83
2022/10/25 06:11:30;;;;;;;1999.90;999.90;;;13.10;99.90;;;;;;5013976;28;20084;-84
2022/10/25 06:13:56;;;;;;;1999.90;999.90;;;13.10;99.90;;;;;;4995345;28;20018;-84
2022/10/25 06:16:22;;;;;;;1999.90;999.90;;;13.00;99.90;;;;;;5009632;28;20018;-84
2022/10/25 06:18:48;;;;;;;1999.90;999.90;;;13.00;99.90;;;;;;5010959;28;20457;-78
2022/10/25 06:21:17;;;;;;;1999.90;999.90;;;13.00;99.90;;;;;;5012861;28;20080;-80
2022/10/25 06:23:44;;;;;;;1999.90;999.90;;;12.90;99.90;;;;;;5010921;28;20030;-83
2022/10/25 06:26:12;;;;;;;1999.90;999.90;;;12.90;99.90;;;;;;5013657;28;20026;-82
2022/10/25 06:28:38;;;;;;;1999.90;999.90;;;12.90;99.90;;;;;;5016470;28;20030;-82
2022/10/25 06:31:06;;;;;;;1999.90;999.90;;;12.90;99.90;;;;;;5013303;28;20108;-82
2022/10/25 06:33:32;;;;;;;1999.90;999.90;;;12.90;99.90;;;;;;4994007;28;20034;-83
2022/10/25 06:36:00;;;;;;;1999.90;999.90;;;12.90;99.90;;;;;;5012806;28;20026;-83
2022/10/25 06:38:26;;;;;;;1999.90;999.90;;;12.90;99.90;;;;;;4998000;28;20057;-82
2022/10/25 06:40:59;;;;;;;1999.90;999.90;;;12.90;99.90;;;;;;5012316;28;20065;-83
2022/10/25 06:43:25;;;;;;;;;;;12.80;99.90;;;;;;4995393;28;20022;-81
2022/10/25 06:45:51;;;;;;;1999.90;999.90;;;12.80;99.90;;;;;;4994020;28;19922;-81
2022/10/25 06:48:17;;;;;;;1999.90;999.90;;;12.80;99.90;;;;;;5011678;28;20493;-80
2022/10/25 06:50:42;;;;;;;1999.90;999.90;;;12.80;99.90;;;;;;5017269;28;20034;-81
2022/10/25 06:53:08;;;;;;;1999.90;999.90;;;12.90;99.90;;;;;;5011715;28;20474;-81
2022/10/25 06:55:34;;;;;;;1999.90;999.90;;;12.80;99.90;;;;;;4993749;28;20030;-81
2022/10/25 06:58:00;;;;;;;1999.90;999.90;;;12.90;99.90;;;;;;5009017;28;20040;-80
2022/10/25 07:00:25;;;;;;;1999.90;999.90;;;12.90;99.90;;;;;;5011278;28;20536;-82
2022/10/25 07:02:58;;;;;;;1999.90;999.90;;;12.90;99.90;;;;;;5015373;28;20033;-81
2022/10/25 07:05:24;;;;;;;1999.90;999.90;;;12.90;99.90;;;;;;5001965;28;20079;-81
2022/10/25 07:07:50;;;;;;;1999.90;999.90;;;13.00;99.90;;;;;;5011221;28;20044;-78
2022/10/25 07:10:16;;;;;;;1999.90;999.90;;;13.10;99.90;;;;;;4994886;28;20490;-79
2022/10/25 07:12:44;;;;;;;1999.90;999.90;;;13.20;99.90;;;;;;5014408;28;20444;-78
2022/10/25 07:15:10;;;;;;;1999.90;999.90;;;13.30;99.90;;;;;;5009601;28;20084;-79
2022/10/25 07:17:35;;;;;;;1999.90;999.90;;;13.40;99.90;;;;;;5016204;28;20080;-81
2022/10/25 07:20:01;;;;;;;1999.90;999.90;;;13.40;99.90;;;;;;5007351;28;20052;-81
2022/10/25 07:22:27;;;;;;;1999.90;999.90;;;13.50;99.90;;;;;;5012676;28;20555;-80
2022/10/25 07:24:53;;;;;;;1999.90;999.90;;;13.60;99.90;;;;;;5011101;28;20029;-81
2022/10/25 07:27:19;;;;;;;1999.90;999.90;;;13.70;99.90;;;;;;4992667;28;20064;-80
2022/10/25 07:29:45;;;;;;;1999.90;999.90;;;13.90;99.90;;;;;;5010764;28;20088;-81
2022/10/25 07:32:11;;;;;;;1999.90;999.90;;;13.90;99.90;;;;;;5009757;28;20033;-77
2022/10/25 07:34:36;;;;;;;1999.90;999.90;;;14.00;99.90;;;;;;5010425;28;20058;-79
2022/10/25 07:37:02;;;;;;;1999.90;999.90;;;14.10;99.90;;;;;;4992114;28;20050;-81
2022/10/25 07:39:28;;;;;;;1999.90;999.90;;;14.20;99.90;;;;;;5011154;28;20397;-81
2022/10/25 07:41:53;;;;;;;1999.90;999.90;;;14.30;99.90;;;;;;5017821;28;20060;-82
2022/10/25 07:44:20;;;;;;;1999.90;999.90;;;14.50;99.90;;;;;;5019630;28;20453;-77
2022/10/25 07:46:46;;;;;;;1999.90;999.90;;;14.60;99.90;;;;;;4997292;28;20030;-78
2022/10/25 07:49:12;;;;;;;1999.90;999.90;;;14.70;99.90;;;;;;4992531;28;20037;-82
2022/10/25 07:51:37;;;;;;;1999.90;999.90;;;14.80;99.90;;;;;;4999739;28;20121;-82
2022/10/25 07:54:03;;;;;;;1999.90;999.90;;;14.80;99.90;;;;;;5018973;28;20656;-82
2022/10/25 07:56:29;;;;;;;1999.90;999.90;;;14.80;99.90;;;;;;5019266;28;20112;-81
2022/10/25 07:58:55;;;;;;;1999.90;999.90;;;14.80;99.90;;;;;;5018177;28;20080;-82
2022/10/25 08:01:25;;;;;;;1999.90;999.90;;;14.90;99.90;;;;;;5010666;28;20041;-80
2022/10/25 08:03:52;;;;;;;1999.90;999.90;;;14.90;99.90;;;;;;5011337;28;20084;-78
2022/10/25 08:06:19;;;;;;;1999.90;999.90;;;15.00;99.90;;;;;;5014020;28;20021;-79
2022/10/25 08:08:44;;;;;;;1999.90;999.90;;;15.00;99.90;;;;;;4999852;28;20439;-79
2022/10/25 08:11:11;;;;;;;1999.90;999.90;;;15.10;99.90;;;;;;5019929;28;20026;-79
2022/10/25 08:13:37;;;;;;;1999.90;999.90;;;15.10;99.90;;;;;;5016340;28;20022;-80
2022/10/25 08:16:04;;;;;;;1999.90;999.90;;;15.20;99.90;;;;;;5017997;28;20049;-78
2022/10/25 08:18:31;;;;;;;1999.90;999.90;;;15.20;99.90;;;;;;5017957;28;20029;-80
2022/10/25 08:20:56;;;;;;;1999.90;999.90;;;15.20;99.90;;;;;;5009521;28;20095;-79
2022/10/25 08:23:24;;;;;;;1999.90;999.90;;;15.20;99.90;;;;;;5001113;28;20037;-79
2022/10/25 08:25:50;;;;;;;1999.90;999.90;;;15.20;99.90;;;;;;4991803;28;20455;-79
2022/10/25 08:28:16;;;;;;;1999.90;999.90;;;15.20;99.90;;;;;;5029503;28;20169;-79
2022/10/25 08:30:42;;;;;;;1999.90;999.90;;;15.30;99.90;;;;;;5019577;28;20116;-79
2022/10/25 08:33:07;;;;;;;1999.90;999.90;;;15.30;99.90;;;;;;5013231;28;20095;-78
2022/10/25 08:35:33;;;;;;;1999.90;999.90;;;15.30;99.90;;;;;;5014458;28;20034;-77
2022/10/25 08:37:59;;;;;;;1999.90;999.90;;;15.30;99.90;;;;;;5013900;28;20037;-77
2022/10/25 08:40:38;;;;;;;1999.90;999.90;;;15.50;99.90;;;;;;5014659;28;20465;-77
2022/10/25 08:43:11;;;;;;;1999.90;999.90;;;15.70;99.90;;;;;;4996060;28;20052;-76
2022/10/25 08:45:59;;;;;;;1999.90;999.90;;;16.00;99.90;;;;;;5016205;28;20528;-76
2022/10/25 08:48:37;;;;;;;1999.90;999.90;;;16.20;99.90;;;;;;4994746;28;20493;-77
2022/10/25 08:51:11;;;;;;;1999.90;999.90;;;16.30;99.90;;;;;;5010688;28;20018;-77
2022/10/25 08:53:46;;;;;;;1999.90;999.90;;;16.60;99.90;;;;;;5014682;28;20066;-78
2022/10/25 08:56:15;;;;;;;1999.90;999.90;;;16.90;99.90;;;;;;5014403;28;20030;-77
2022/10/25 08:58:54;;;;;;;1999.90;999.90;;;16.90;99.90;;;;;;5011576;28;20041;-77
2022/10/25 09:01:30;;;;;;;1999.90;999.90;;;17.00;99.90;;;;;;5001330;28;20057;-78
2022/10/25 09:03:58;;;;;;;1999.90;999.90;;;17.30;99.90;;;;;;5012077;28;20030;-76
2022/10/25 09:06:57;;;;;;;1999.90;999.90;;;17.90;99.90;;;;;;5013563;28;20029;-77
2022/10/25 09:09:39;;;;;;;1999.90;999.90;;;18.10;99.90;;;;;;5011883;28;20052;-77
2022/10/25 09:12:16;;;;;;;1999.90;999.90;;;17.90;99.90;;;;;;5013409;28;20104;-78
2022/10/25 09:15:02;;;;;;;1999.90;999.90;;;17.80;99.90;;;;;;5007184;28;20030;-77
2022/10/25 09:17:42;;;;;;;1999.90;999.90;;;17.70;99.90;;;;;;5014455;28;20032;-76
2022/10/25 09:20:18;;;;;;;1999.90;999.90;;;17.70;99.90;;;;;;5013870;28;21524;-77
2022/10/25 09:22:53;;;;;;;1999.90;999.90;;;17.70;99.90;;;;;;5021228;28;20022;-77
2022/10/25 09:25:18;;;;;;;1999.90;999.90;;;17.60;99.90;;;;;;5018673;28;20497;-77
2022/10/25 09:28:07;;;;;;;1999.90;999.90;;;17.50;99.90;;;;;;5021035;28;20026;-77
2022/10/25 09:30:38;;;;;;;1999.90;999.90;;;17.40;99.90;;;;;;5019659;28;20036;-78
2022/10/25 09:33:18;;;;;;;1999.90;999.90;;;17.30;99.90;;;;;;5002867;28;20017;-79
2022/10/25 09:35:45;;;;;;;1999.90;999.90;;;17.30;99.90;;;;;;5022004;28;20038;-78
2022/10/25 09:38:18;;;;;;;1999.90;999.90;;;17.30;99.90;;;;;;5021886;28;20025;-77
2022/10/25 09:40:52;;;;;;;1999.90;999.90;;;17.40;99.90;;;;;;5013872;28;20119;-78
2022/10/25 09:43:24;;;;;;;1999.90;999.90;;;17.40;99.90;;;;;;5013470;28;20500;-77
2022/10/25 09:45:54;;;;;;;1999.90;999.90;;;17.40;99.90;;;;;;5006039;28;20422;-79
2022/10/25 09:48:32;;;;;;;1999.90;999.90;;;17.50;99.90;;;;;;5013305;28;20034;-78
2022/10/25 09:51:12;;;;;;;1999.90;999.90;;;17.40;99.90;;;;;;5011984;28;20038;-77
2022/10/25 09:53:40;;;;;;;1999.90;999.90;;;17.40;99.90;;;;;;4991881;28;20082;-77
2022/10/25 09:56:06;;;;;;;1999.90;999.90;;;17.40;99.90;;;;;;4993107;28;20038;-77
2022/10/25 09:58:34;;;;;;;1999.90;999.90;;;17.50;99.90;;;;;;4993471;28;20038;-77
2022/10/25 10:01:10;;;;;;;1999.90;999.90;;;17.50;99.90;;;;;;4990884;28;20029;-78
2022/10/25 10:03:36;;;;;;;1999.90;999.90;;;17.50;99.90;;;;;;4989949;28;20552;-78
2022/10/25 10:06:27;;;;;;;1999.90;999.90;;;17.40;99.90;;;;;;4995431;28;20040;-77
2022/10/25 10:08:59;;;;;;;1999.90;999.90;;;17.50;99.90;;;;;;4991982;28;20027;-77
2022/10/25 10:11:25;;;;;;;1999.90;999.90;;;17.60;99.90;;;;;;4992141;28;20045;-77
2022/10/25 10:14:01;;;;;;;1999.90;999.90;;;17.60;99.90;;;;;;4990846;28;21617;-78
2022/10/25 10:16:31;;;;;;;1999.90;999.90;;;17.60;99.90;;;;;;4995246;28;20034;-77
2022/10/25 10:19:18;;;;;;;1999.90;999.90;;;17.70;99.90;;;;;;4990694;28;20124;-77
2022/10/25 10:21:46;;;;;;;1999.90;999.90;;;17.70;99.90;;;;;;4992093;28;20406;-76
2022/10/25 10:24:27;;;;;;;1999.90;999.90;;;17.80;99.90;;;;;;4996616;28;20033;-76
2022/10/25 10:26:58;;;;;;;1999.90;999.90;;;17.80;99.90;;;;;;4991916;28;20034;-76
2022/10/25 10:29:27;;;;;;;1999.90;999.90;;;17.90;99.90;;;;;;4992588;28;20037;-77
2022/10/25 10:31:59;;;;;;;1999.90;999.90;;;17.90;99.90;;;;;;4990712;28;20117;-76
2022/10/25 10:34:32;;;;;;;1999.90;999.90;;;18.00;99.90;;;;;;4990281;28;20018;-77
2022/10/25 10:37:03;;;;;;;;;;;18.00;99.90;;;;;;4991289;28;20474;-77
2022/10/25 10:39:29;;;;;;;1999.90;999.90;;;18.10;99.90;;;;;;4998173;28;20392;-77
2022/10/25 10:42:02;;;;;;;1999.90;999.90;;;18.10;99.90;;;;;;4996416;28;20058;-79
2022/10/25 10:44:28;;;;;;;;;;;18.10;99.90;;;;;;4992872;28;20030;-80
2022/10/25 10:46:54;;;;;;;1999.90;999.90;;;18.10;99.90;;;;;;4990861;28;20280;-77
2022/10/25 10:49:26;;;;;;;1999.90;999.90;;;18.20;99.90;;;;;;4990576;28;20018;-77
2022/10/25 10:51:52;;;;;;;1999.90;999.90;;;18.20;99.90;;;;;;4992789;28;20018;-77
2022/10/25 10:54:28;;;;;;;1999.90;999.90;;;18.20;99.90;;;;;;4994404;28;20405;-78
2022/10/25 10:56:56;;;;;;;1999.90;999.90;;;18.30;99.90;;;;;;5016812;28;20820;-78
2022/10/25 10:59:44;;;;;;;1999.90;999.90;;;18.30;99.90;;;;;;4986914;28;20030;-78
2022/10/25 11:02:26;;;;;;;1999.90;999.90;;;18.40;99.90;;;;;;5006894;28;20116;-80
2022/10/25 11:04:54;;;;;;;1999.90;999.90;;;18.40;99.90;;;;;;4987231;28;20038;-78
2022/10/25 11:07:34;;;;;;;1999.90;999.90;;;18.50;99.90;;;;;;5011125;28;20460;-77
2022/10/25 11:10:15;;;;;;;1999.90;999.90;;;18.60;99.90;;;;;;5010380;28;20022;-79
2022/10/25 11:12:43;;;;;;;1999.90;999.90;;;18.60;99.90;;;;;;5011521;28;20029;-78
2022/10/25 11:15:13;;;;;;;1999.90;999.90;;;18.80;99.90;;;;;;5009343;28;20021;-77
2022/10/25 11:17:53;;;;;;;1999.90;999.90;;;18.90;99.90;;;;;;5009244;28;20036;-77
2022/10/25 11:20:40;;;;;;;1999.90;999.90;;;19.00;99.90;;;;;;5004851;28;20443;-76
2022/10/25 11:23:08;;;;;;;1999.90;999.90;;;19.10;99.90;;;;;;5006475;28;20432;-76
2022/10/25 11:25:42;;;;;;;1999.90;999.90;;;19.20;99.90;;;;;;5006923;28;20493;-76
2022/10/25 11:28:44;;;;;;;1999.90;999.90;;;19.20;99.90;;;;;;5006298;28;20524;-76
2022/10/25 11:31:19;;;;;;;1999.90;999.90;;;19.20;99.90;;;;;;5004508;28;20025;-77
2022/10/25 11:34:25;;;;;;;1999.90;999.90;;;19.20;99.90;;;;;;5005761;28;20041;-76
2022/10/25 11:37:09;;;;;;;1999.90;999.90;;;19.30;99.90;;;;;;5007850;28;20034;-76
2022/10/25 11:39:41;;;;;;;1999.90;999.90;;;19.20;99.90;;;;;;5005783;28;20029;-76
2022/10/25 11:42:37;;;;;;;1999.90;999.90;;;19.30;99.90;;;;;;5010525;28;20108;-76
2022/10/25 11:45:25;;;;;;;1999.90;999.90;;;19.50;99.90;;;;;;5008866;28;20033;-76
2022/10/25 11:48:18;;;;;;;1999.90;999.90;;;19.70;99.90;;;;;;4992897;28;20037;-76
2022/10/25 11:51:02;;;;;;;1999.90;999.90;;;19.90;99.90;;;;;;5011274;28;20076;-76
2022/10/25 11:53:52;;;;;;;1999.90;999.90;;;19.90;99.90;;;;;;5009336;28;20044;-77
2022/10/25 11:56:21;;;;;;;1999.90;999.90;;;20.00;99.90;;;;;;5014144;28;20026;-76
2022/10/25 11:59:06;;;;;;;1999.90;999.90;;;20.00;99.90;;;;;;4987669;28;20042;-79
2022/10/25 12:02:07;;;;;;;1999.90;999.90;;;20.10;99.90;;;;;;5008329;28;20061;-80
2022/10/25 12:04:52;;;;;;;1999.90;999.90;;;20.10;99.90;;;;;;4972325;28;20050;-79
2022/10/25 12:07:45;;;;;;;1999.90;999.90;;;20.00;99.90;;;;;;4987346;28;20026;-79
2022/10/25 12:10:36;;;;;;;1999.90;999.90;;;20.00;99.90;;;;;;5010687;28;20397;-77
2022/10/25 12:13:11;;;;;;;1999.90;999.90;;;19.90;99.90;;;;;;5012732;28;20180;-78
2022/10/25 12:15:51;;;;;;;1999.90;999.90;;;19.90;99.90;;;;;;5016975;28;20397;-78
2022/10/25 12:18:25;;;;;;;1999.90;999.90;;;19.90;99.90;;;;;;5010532;28;20026;-77